Time;durP1;ratioP1;P1;durP2;ratioP2;P2;SDS_P1;SDS_P2;PMS_P1;PMS_P2;Temp;Humidity;BMP_temperature;BMP_pressure;BME280_temperature;BME280_humidity;BME280_pressure;Samples;Min_cycle;Max_cycle;Signal;HPM_P1;HPM_P2
2022/07/04 00:02:04;;;;;;;13.63;7.50;;;;;;;20.17;50.52;99395.78;5089478;27;20034;-69
2022/07/04 00:04:29;;;;;;;11.65;6.82;;;;;;;20.14;50.60;99388.84;5072158;27;20031;-72
2022/07/04 00:06:54;;;;;;;11.27;6.43;;;;;;;20.13;50.43;99397.13;5108626;27;20238;-70
2022/07/04 00:09:19;;;;;;;11.13;7.28;;;;;;;20.10;50.88;99387.50;5078816;27;20050;-73
2022/07/04 00:11:44;;;;;;;14.70;7.00;;;;;;;20.08;50.42;99388.72;5107814;27;20046;-70
2022/07/04 00:14:08;;;;;;;15.07;8.52;;;;;;;20.05;50.37;99392.63;5108717;27;20039;-71
2022/07/04 00:16:34;;;;;;;17.95;9.05;;;;;;;20.03;51.03;99385.69;5077084;27;20535;-70
2022/07/04 00:18:58;;;;;;;12.85;6.75;;;;;;;19.99;51.11;99387.91;5074037;27;20035;-68
2022/07/04 00:21:23;;;;;;;14.48;7.57;;;;;;;19.99;51.28;99389.75;5091016;27;20039;-69
2022/07/04 00:23:48;;;;;;;10.18;6.68;;;;;;;19.96;51.75;99385.56;5088607;27;20031;-68
2022/07/04 00:26:13;;;;;;;12.82;7.45;;;;;;;19.95;52.06;99383.88;5107459;27;20405;-68
2022/07/04 00:28:37;;;;;;;18.20;7.18;;;;;;;19.91;51.99;99383.38;5109906;27;20046;-71
2022/07/04 00:31:02;;;;;;;13.50;6.85;;;;;;;19.89;51.37;99385.41;5108718;27;20035;-69
2022/07/04 00:33:27;;;;;;;12.20;7.22;;;;;;;19.87;51.37;99383.88;5110111;27;20041;-72
2022/07/04 00:35:52;;;;;;;16.23;7.40;;;;;;;19.84;51.08;99387.81;5114331;27;20065;-70
2022/07/04 00:38:17;;;;;;;20.25;8.43;;;;;;;19.81;50.92;99388.16;5096664;27;20098;-68
2022/07/04 00:40:41;;;;;;;14.27;6.95;;;;;;;19.79;51.52;99390.19;5116395;27;20034;-71
2022/07/04 00:43:06;;;;;;;12.73;7.53;;;;;;;19.77;52.12;99386.78;5093553;27;20026;-70
2022/07/04 00:45:31;;;;;;;11.98;7.13;;;;;;;19.72;53.13;99394.63;5118818;27;20439;-71
2022/07/04 00:47:56;;;;;;;16.55;7.35;;;;;;;19.70;53.19;99393.94;5106016;27;20073;-72
2022/07/04 00:50:21;;;;;;;16.48;7.45;;;;;;;19.67;53.30;99402.38;5111589;27;20039;-71
2022/07/04 00:52:46;;;;;;;11.30;6.68;;;;;;;19.64;53.23;99402.72;5078549;27;20046;-72
2022/07/04 00:55:11;;;;;;;11.02;6.70;;;;;;;19.61;53.40;99394.97;5083972;27;20043;-74
2022/07/04 00:57:36;;;;;;;11.23;6.47;;;;;;;19.58;53.41;99393.47;5115570;27;20035;-73
2022/07/04 01:00:00;;;;;;;15.20;8.57;;;;;;;19.55;53.42;99392.94;5079419;27;20050;-73
2022/07/04 01:02:25;;;;;;;12.80;7.70;;;;;;;19.53;53.45;99406.63;5097044;27;20038;-70
2022/07/04 01:04:50;;;;;;;11.30;7.30;;;;;;;19.51;53.33;99397.03;5114559;27;20038;-69
2022/07/04 01:07:15;;;;;;;13.13;7.43;;;;;;;19.46;53.19;99405.63;5115937;27;20047;-71
2022/07/04 01:09:40;;;;;;;13.60;7.50;;;;;;;19.45;53.32;99394.97;5098574;27;20489;-69
2022/07/04 01:12:05;;;;;;;13.45;6.78;;;;;;;19.44;53.13;99396.00;5102525;27;20413;-69
2022/07/04 01:14:29;;;;;;;11.63;6.97;;;;;;;19.42;53.58;99403.41;5101667;27;20064;-71
2022/07/04 01:16:54;;;;;;;15.98;7.78;;;;;;;19.41;53.57;99407.97;5111228;27;20051;-71
2022/07/04 01:19:19;;;;;;;15.02;7.68;;;;;;;19.40;53.46;99406.31;5114240;27;20618;-70
2022/07/04 01:21:44;;;;;;;14.05;7.72;;;;;;;19.42;53.54;99404.25;5079332;27;20493;-72
2022/07/04 01:24:12;;;;;;;13.43;7.75;;;;;;;19.45;52.76;99414.75;5124524;27;20045;-71
2022/07/04 01:26:37;;;;;;;11.32;7.47;;;;;;;19.45;53.33;99409.34;5100167;27;20039;-73
2022/07/04 01:29:02;;;;;;;16.23;8.15;;;;;;;19.46;53.05;99410.19;5096133;27;20046;-72
2022/07/04 01:31:26;;;;;;;13.30;8.13;;;;;;;19.49;52.87;99407.19;5064661;27;20042;-73
2022/07/04 01:33:51;;;;;;;12.90;7.50;;;;;;;19.51;52.74;99414.09;5096402;27;20033;-72
2022/07/04 01:36:16;;;;;;;15.13;7.35;;;;;;;19.53;52.66;99419.31;5082508;27;20039;-67
2022/07/04 01:38:41;;;;;;;11.65;7.20;;;;;;;19.52;52.55;99406.84;5098765;27;20125;-69
2022/07/04 01:41:05;;;;;;;12.05;7.97;;;;;;;19.52;52.71;99418.50;5095104;27;20043;-68
2022/07/04 01:43:30;;;;;;;13.38;7.55;;;;;;;19.52;52.48;99414.97;5113875;27;20034;-69
2022/07/04 01:45:55;;;;;;;19.48;8.10;;;;;;;19.55;52.52;99411.88;5116203;27;20800;-70
2022/07/04 01:48:20;;;;;;;14.20;7.22;;;;;;;19.56;52.25;99419.81;5095882;27;20062;-69
2022/07/04 01:50:44;;;;;;;11.25;7.10;;;;;;;19.60;52.51;99414.09;5117146;27;20035;-69
2022/07/04 01:53:09;;;;;;;14.35;7.30;;;;;;;19.63;52.27;99411.88;5093914;27;20073;-74
2022/07/04 01:55:34;;;;;;;12.27;7.15;;;;;;;19.68;52.25;99419.47;5081343;27;20051;-73
2022/07/04 01:58:00;;;;;;;13.52;7.50;;;;;;;19.73;52.35;99414.38;5114387;27;20078;-74
2022/07/04 02:03:08;;;;;;;11.85;6.97;;;;;;;19.80;52.11;99421.63;5113955;27;20051;-70
2022/07/04 02:05:33;;;;;;;17.77;7.35;;;;;;;19.85;52.06;99424.66;5080253;27;20034;-69
2022/07/04 02:07:58;;;;;;;15.00;8.10;;;;;;;19.90;52.17;99424.13;5094174;27;20340;-73
2022/07/04 02:10:23;;;;;;;18.25;7.25;;;;;;;19.94;51.85;99423.63;5105997;27;20087;-73
2022/07/04 02:13:03;;;;;;;13.02;7.35;;;;;;;19.99;52.89;99416.81;5069814;27;20091;-73
2022/07/04 02:15:29;;;;;;;11.77;7.72;;;;;;;20.08;53.07;99432.03;5105396;27;20046;-72
2022/07/04 02:17:54;;;;;;;12.43;6.60;;;;;;;20.13;52.51;99422.34;5110052;27;20045;-74
2022/07/04 02:20:19;;;;;;;13.40;7.13;;;;;;;20.18;51.74;99422.66;5122367;27;20038;-72
2022/07/04 02:22:44;;;;;;;17.27;7.65;;;;;;;20.22;51.65;99428.56;5105080;27;20046;-74
2022/07/04 02:25:11;;;;;;;14.10;7.60;;;;;;;20.25;51.66;99420.09;5106862;27;20038;-73
2022/07/04 02:27:36;;;;;;;12.40;7.47;;;;;;;20.31;51.18;99422.09;5090638;27;20038;-74
2022/07/04 02:30:00;;;;;;;16.23;7.35;;;;;;;20.35;51.24;99428.00;5127589;27;20042;-72
2022/07/04 02:32:25;;;;;;;13.15;7.35;;;;;;;20.39;50.90;99430.22;5128379;27;20054;-73
2022/07/04 02:34:50;;;;;;;12.38;8.45;;;;;;;20.48;51.13;99434.56;5127648;27;20393;-71
2022/07/04 02:37:15;;;;;;;8.50;6.88;;;;;;;20.59;50.69;99430.59;5126119;27;20061;-73
2022/07/04 02:39:39;;;;;;;14.98;7.13;;;;;;;20.71;50.81;99433.75;5126614;27;20046;-75
2022/07/04 02:42:05;;;;;;;11.60;7.68;;;;;;;20.85;50.55;99432.97;5126280;27;20039;-71
2022/07/04 02:44:30;;;;;;;15.02;7.55;;;;;;;20.99;49.48;99430.28;5133970;27;20037;-76
2022/07/04 02:46:54;;;;;;;14.18;7.20;;;;;;;21.14;49.61;99429.50;5119813;27;20486;-70
2022/07/04 02:49:20;;;;;;;11.82;7.45;;;;;;;21.29;49.59;99438.56;5136948;27;20046;-69
2022/07/04 02:51:45;;;;;;;16.02;7.90;;;;;;;21.43;49.19;99431.50;5121954;27;20095;-69
2022/07/04 02:54:09;;;;;;;11.80;7.10;;;;;;;21.56;48.99;99439.81;5121997;27;20038;-72
2022/07/04 02:56:34;;;;;;;22.05;7.93;;;;;;;21.64;48.00;99434.34;5124919;27;20200;-68
2022/07/04 02:58:59;;;;;;;13.02;7.07;;;;;;;21.71;48.16;99444.25;5121349;27;20039;-65
2022/07/04 03:01:24;;;;;;;20.00;7.18;;;;;;;21.82;48.06;99445.66;5121784;27;20041;-71
2022/07/04 03:03:49;;;;;;;11.90;7.28;;;;;;;21.93;48.01;99439.78;5086383;27;20079;-71
2022/07/04 03:06:14;;;;;;;15.80;6.93;;;;;;;22.07;47.72;99440.84;5106588;27;20536;-72
2022/07/04 03:08:39;;;;;;;16.33;7.75;;;;;;;22.23;47.50;99443.38;5125499;27;20039;-73
2022/07/04 03:11:05;;;;;;;17.00;7.38;;;;;;;22.36;47.27;99442.66;5125577;27;20122;-71
2022/07/04 03:13:30;;;;;;;12.30;7.57;;;;;;;22.50;47.29;99443.66;5089525;27;20042;-69
2022/07/04 03:15:55;;;;;;;15.88;8.05;;;;;;;22.63;46.74;99439.25;5124758;27;20065;-66
2022/07/04 03:18:20;;;;;;;17.55;7.97;;;;;;;22.75;46.42;99437.72;5078936;27;20095;-66
2022/07/04 03:20:45;;;;;;;12.50;7.50;;;;;;;22.89;45.95;99436.00;5112060;27;20043;-67
2022/07/04 03:23:10;;;;;;;17.92;8.05;;;;;;;23.02;45.83;99443.44;5096617;27;20128;-66
2022/07/04 03:25:35;;;;;;;14.23;7.18;;;;;;;23.12;45.77;99443.97;5113101;27;20162;-66
2022/07/04 03:27:59;;;;;;;16.15;8.32;;;;;;;23.25;45.70;99445.97;5094773;27;20026;-66
2022/07/04 03:30:24;;;;;;;11.63;7.82;;;;;;;23.36;45.57;99451.72;5113801;27;20098;-66
2022/07/04 03:32:49;;;;;;;15.20;7.38;;;;;;;23.48;45.72;99449.28;5108302;27;20045;-66
2022/07/04 03:35:14;;;;;;;18.02;7.50;;;;;;;23.58;45.61;99449.00;5120785;27;20047;-67
2022/07/04 03:37:38;;;;;;;16.40;7.68;;;;;;;23.65;45.91;99448.00;5114737;27;20075;-67
2022/07/04 03:40:04;;;;;;;10.55;7.50;;;;;;;23.72;45.93;99457.03;5089648;27;20043;-67
2022/07/04 03:42:29;;;;;;;10.35;6.95;;;;;;;23.78;45.57;99448.09;5088282;27;20042;-68
2022/07/04 03:44:54;;;;;;;10.30;6.15;;;;;;;23.81;45.70;99455.03;5090082;27;20109;-66
2022/07/04 03:47:19;;;;;;;12.23;7.70;;;;;;;23.80;44.86;99459.63;5090185;27;20038;-66
2022/07/04 03:49:43;;;;;;;13.55;7.32;;;;;;;23.84;45.54;99454.59;5091804;27;20045;-68
2022/07/04 03:52:08;;;;;;;11.40;7.28;;;;;;;23.93;45.69;99453.41;5095228;27;20451;-67
2022/07/04 03:54:33;;;;;;;18.23;7.60;;;;;;;24.09;45.68;99444.91;5095257;27;20417;-66
2022/07/04 03:56:57;;;;;;;11.48;6.78;;;;;;;24.30;45.14;99448.59;5096209;27;20039;-68
2022/07/04 03:59:22;;;;;;;13.50;7.45;;;;;;;24.52;44.99;99456.47;5095867;27;20039;-67
2022/07/04 04:01:47;;;;;;;15.35;8.57;;;;;;;24.69;43.67;99453.38;5077694;27;20070;-66
2022/07/04 04:06:55;;;;;;;13.63;7.78;;;;;;;25.07;42.53;99456.44;5077335;27;20100;-68
2022/07/04 04:09:20;;;;;;;22.05;7.60;;;;;;;25.24;42.08;99460.44;5060726;27;20043;-67
2022/07/04 04:11:45;;;;;;;16.88;7.68;;;;;;;25.44;41.32;99458.56;5095877;27;20055;-68
2022/07/04 04:14:10;;;;;;;15.48;7.53;;;;;;;25.64;41.13;99456.69;5077108;27;20091;-67
2022/07/04 04:16:35;;;;;;;12.55;8.07;;;;;;;25.88;40.19;99457.94;5095519;27;20055;-68
2022/07/04 04:18:59;;;;;;;13.25;7.55;;;;;;;26.06;40.53;99460.00;5077412;27;20031;-68
2022/07/04 04:21:24;;;;;;;14.13;7.75;;;;;;;26.25;41.08;99461.00;5096017;27;20074;-67
2022/07/04 04:23:49;;;;;;;14.27;6.90;;;;;;;26.44;40.88;99460.13;5077708;27;20565;-66
2022/07/04 04:26:14;;;;;;;12.57;7.72;;;;;;;26.57;40.77;99462.81;5096546;27;20086;-70
2022/07/04 04:28:38;;;;;;;10.80;6.93;;;;;;;26.68;39.80;99461.28;5097195;27;20561;-67
2022/07/04 04:31:03;;;;;;;9.32;7.20;;;;;;;26.76;39.49;99463.75;5097455;27;20572;-68
2022/07/04 04:33:28;;;;;;;12.90;6.85;;;;;;;26.86;39.48;99457.84;5096874;27;20493;-66
2022/07/04 04:35:53;;;;;;;13.82;7.43;;;;;;;26.95;38.99;99454.66;5096681;27;20497;-65
2022/07/04 04:38:17;;;;;;;19.05;8.77;;;;;;;27.07;38.66;99455.63;5078114;27;20042;-66
2022/07/04 04:40:42;;;;;;;11.20;7.47;;;;;;;27.20;37.95;99451.13;5096586;27;20050;-67
2022/07/04 04:43:07;;;;;;;13.60;7.90;;;;;;;27.34;38.56;99456.25;5098242;27;20502;-67
2022/07/04 04:45:31;;;;;;;12.27;8.48;;;;;;;27.56;38.16;99459.47;5077555;28;20050;-68
2022/07/04 04:47:56;;;;;;;11.07;8.43;;;;;;;27.87;37.10;99461.31;5095552;27;20047;-67
2022/07/04 04:50:21;;;;;;;9.50;7.65;;;;;;;28.15;36.88;99458.91;5096017;27;20393;-67
2022/07/04 04:52:46;;;;;;;10.13;7.72;;;;;;;28.50;36.74;99470.13;5076971;28;20508;-72
2022/07/04 04:55:10;;;;;;;11.30;7.90;;;;;;;28.88;36.84;99461.66;5097991;27;20127;-71
2022/07/04 04:57:35;;;;;;;14.02;7.68;;;;;;;29.26;35.80;99472.25;5099097;27;20417;-72
2022/07/04 05:00:00;;;;;;;15.52;8.30;;;;;;;29.57;35.28;99462.91;5096207;28;20039;-72
2022/07/04 05:02:25;;;;;;;16.98;7.97;;;;;;;29.94;35.15;99474.53;5077266;27;20489;-71
2022/07/04 05:04:50;;;;;;;11.98;8.10;;;;;;;30.31;34.91;99479.78;5095480;28;20497;-73
2022/07/04 05:07:15;;;;;;;15.00;8.93;;;;;;;30.62;33.63;99481.28;5077150;28;20515;-70
2022/07/04 05:09:39;;;;;;;14.93;7.95;;;;;;;30.91;32.87;99484.94;5095197;28;20637;-71
2022/07/04 05:12:04;;;;;;;12.25;7.93;;;;;;;31.17;32.84;99480.75;5095270;28;20596;-70
2022/07/04 05:14:29;;;;;;;14.68;8.05;;;;;;;31.40;32.45;99467.69;5095249;28;20130;-70
2022/07/04 05:16:54;;;;;;;11.40;7.85;;;;;;;31.63;32.14;99477.75;5094918;28;20467;-71
2022/07/04 05:19:19;;;;;;;14.13;7.63;;;;;;;31.90;32.40;99475.16;5095137;28;20077;-71
2022/07/04 05:21:44;;;;;;;18.33;8.32;;;;;;;32.15;31.61;99477.47;5095339;28;20067;-71
2022/07/04 05:24:11;;;;;;;19.98;9.65;;;;;;;32.39;31.05;99473.38;5095047;27;20034;-71
2022/07/04 05:26:35;;;;;;;14.45;8.93;;;;;;;32.63;30.55;99476.72;5076910;28;20099;-71
2022/07/04 05:29:00;;;;;;;15.95;7.97;;;;;;;32.68;30.36;99471.28;5076819;28;20043;-72
2022/07/04 05:31:25;;;;;;;17.05;8.57;;;;;;;32.78;30.63;99476.13;5094971;27;20045;-72
2022/07/04 05:33:52;;;;;;;14.20;8.57;;;;;;;32.92;30.28;99471.03;5076482;28;20035;-71
2022/07/04 05:36:17;;;;;;;14.90;7.50;;;;;;;33.08;29.48;99470.09;5077063;28;20480;-70
2022/07/04 05:38:41;;;;;;;11.73;7.57;;;;;;;33.11;29.12;99466.81;5098583;27;20466;-71
2022/07/04 05:41:06;;;;;;;13.88;8.02;;;;;;;33.10;29.47;99468.75;5101885;27;20043;-67
2022/07/04 05:43:31;;;;;;;11.30;8.10;;;;;;;33.09;29.57;99466.22;5098740;27;20039;-67
2022/07/04 05:45:55;;;;;;;15.85;8.65;;;;;;;32.94;28.93;99466.94;5080334;27;20581;-67
2022/07/04 05:48:20;;;;;;;11.38;7.85;;;;;;;33.01;28.92;99462.03;5080426;27;20043;-65
2022/07/04 05:50:45;;;;;;;12.35;8.45;;;;;;;33.27;29.14;99467.84;5063444;27;20043;-66
2022/07/04 05:53:10;;;;;;;13.27;8.68;;;;;;;33.66;29.21;99471.22;5080395;27;20039;-66
2022/07/04 05:55:34;;;;;;;11.45;7.95;;;;;;;34.00;28.61;99461.53;5080170;27;20118;-66
2022/07/04 05:57:59;;;;;;;14.48;8.73;;;;;;;34.32;27.97;99472.53;5098681;27;20050;-65
2022/07/04 06:00:24;;;;;;;15.18;8.65;;;;;;;34.53;27.49;99467.97;5098583;27;20075;-67
2022/07/04 06:02:49;;;;;;;15.57;7.85;;;;;;;34.52;26.65;99469.06;5098674;27;20035;-65
2022/07/04 06:05:13;;;;;;;15.45;7.97;;;;;;;34.20;26.53;99464.41;5098380;27;20042;-67
2022/07/04 06:07:38;;;;;;;10.57;8.00;;;;;;;33.88;27.36;99467.25;5098305;27;20402;-67
2022/07/04 06:10:05;;;;;;;10.75;8.00;;;;;;;33.68;28.14;99472.63;5079944;27;20505;-66
2022/07/04 06:12:30;;;;;;;11.25;7.60;;;;;;;33.76;27.65;99463.84;5098583;27;20043;-65
2022/07/04 06:14:54;;;;;;;10.02;7.03;;;;;;;33.99;27.53;99461.78;5097889;27;20046;-67
2022/07/04 06:17:19;;;;;;;12.30;8.23;;;;;;;34.30;27.16;99462.88;5080083;27;20493;-68
2022/07/04 06:19:44;;;;;;;10.90;7.55;;;;;;;34.68;27.12;99456.09;5098162;27;20404;-68
2022/07/04 06:22:09;;;;;;;13.95;9.85;;;;;;;35.11;26.07;99466.75;5098124;27;20451;-68
2022/07/04 06:24:34;;;;;;;14.88;7.75;;;;;;;35.55;26.26;99463.53;5097985;27;20091;-69
2022/07/04 06:26:58;;;;;;;15.50;8.38;;;;;;;35.99;25.70;99464.63;5079876;27;20062;-67
2022/07/04 06:29:23;;;;;;;10.35;7.13;;;;;;;36.32;24.33;99465.13;5079352;27;20142;-67
2022/07/04 06:31:48;;;;;;;11.50;8.10;;;;;;;36.65;23.77;99460.84;5079506;27;20039;-69
2022/07/04 06:36:56;;;;;;;11.43;7.05;;;;;;;37.94;23.07;99455.78;5097627;27;20039;-67
2022/07/04 06:39:21;;;;;;;15.73;7.80;;;;;;;38.20;22.34;99464.75;5097673;27;20054;-68
2022/07/04 06:41:45;;;;;;;9.43;7.53;;;;;;;38.48;21.95;99466.66;5097530;27;20126;-68
2022/07/04 06:44:10;;;;;;;10.93;7.30;;;;;;;38.64;21.59;99469.25;5097460;27;20088;-67
2022/07/04 06:46:35;;;;;;;10.18;7.75;;;;;;;38.60;20.84;99471.84;5079594;27;20051;-68
2022/07/04 06:49:00;;;;;;;10.95;7.43;;;;;;;38.71;21.03;99464.19;5079404;27;20516;-68
2022/07/04 06:51:24;;;;;;;12.20;8.05;;;;;;;38.95;21.18;99466.88;5096699;27;20075;-67
2022/07/04 06:53:50;;;;;;;9.55;7.93;;;;;;;39.17;20.09;99467.16;5079054;27;20557;-67
2022/07/04 06:56:15;;;;;;;10.82;7.93;;;;;;;39.58;20.23;99469.34;5079070;27;20531;-68
2022/07/04 06:58:40;;;;;;;13.68;8.13;;;;;;;39.74;19.52;99470.72;5078986;27;20497;-67
2022/07/04 07:01:05;;;;;;;14.95;8.02;;;;;;;39.98;19.81;99465.84;5061688;27;20126;-67
2022/07/04 07:03:30;;;;;;;12.35;8.10;;;;;;;40.19;19.79;99461.53;5097287;27;20170;-68
2022/07/04 07:05:56;;;;;;;13.25;8.63;;;;;;;40.42;19.70;99456.91;5097214;27;20501;-71
2022/07/04 07:08:21;;;;;;;9.15;7.63;;;;;;;40.55;18.80;99460.84;5097391;27;20054;-71
2022/07/04 07:10:45;;;;;;;10.90;8.13;;;;;;;40.26;18.64;99450.78;5045052;27;20051;-67
2022/07/04 07:13:10;;;;;;;13.63;10.18;;;;;;;40.26;18.85;99461.97;5097309;27;20043;-67
2022/07/04 07:15:35;;;;;;;9.25;8.35;;;;;;;40.28;18.68;99456.09;5096969;27;20054;-68
2022/07/04 07:18:02;;;;;;;11.32;7.75;;;;;;;40.39;18.61;99457.56;5078749;27;20046;-71
2022/07/04 07:20:27;;;;;;;9.75;8.35;;;;;;;40.58;19.62;99454.63;5078669;27;20042;-71
2022/07/04 07:22:51;;;;;;;10.35;7.75;;;;;;;40.84;17.75;99460.53;5096949;27;20043;-71
2022/07/04 07:25:16;;;;;;;9.52;7.45;;;;;;;41.19;17.01;99450.53;5096726;27;20527;-67
2022/07/04 07:27:41;;;;;;;9.43;8.23;;;;;;;41.33;16.84;99454.09;5096905;27;20121;-66
2022/07/04 07:30:06;;;;;;;8.48;7.20;;;;;;;41.81;16.66;99461.88;5078179;27;20390;-67
2022/07/04 07:32:31;;;;;;;9.75;7.80;;;;;;;42.63;16.32;99456.53;5100575;27;20063;-67
2022/07/04 07:34:56;;;;;;;8.13;7.43;;;;;;;43.57;15.41;99459.81;5088087;27;20059;-67
2022/07/04 07:37:22;;;;;;;9.35;8.38;;;;;;;44.22;14.56;99458.66;5085583;27;20045;-71
2022/07/04 07:39:46;;;;;;;14.00;8.45;;;;;;;44.79;14.18;99456.28;5098068;27;20089;-71
2022/07/04 07:42:11;;;;;;;8.85;7.90;;;;;;;45.56;13.71;99461.31;5096321;27;20129;-71
2022/07/04 07:44:36;;;;;;;10.38;9.43;;;;;;;46.53;12.84;99468.34;5096880;27;20389;-71
2022/07/04 07:47:01;;;;;;;12.75;10.93;;;;;;;47.70;11.91;99474.84;5096301;27;20050;-71
2022/07/04 07:49:25;;;;;;;12.80;11.70;;;;;;;49.04;10.88;99463.41;5077714;27;20161;-70
2022/07/04 07:51:50;;;;;;;16.60;15.13;;;;;;;50.01;10.36;99469.06;5096307;27;20054;-70
2022/07/04 07:54:17;;;;;;;14.35;13.18;;;;;;;50.64;9.52;99477.09;5060975;27;20517;-72
2022/07/04 07:56:42;;;;;;;18.13;16.77;;;;;;;51.07;9.94;99476.53;5071580;27;20039;-70
2022/07/04 07:59:06;;;;;;;13.45;12.38;;;;;;;51.05;9.25;99473.28;5083415;27;20042;-72
2022/07/04 08:01:31;;;;;;;14.93;13.48;;;;;;;50.28;9.55;99473.66;5095915;27;20450;-71
2022/07/04 08:06:39;;;;;;;14.50;13.40;;;;;;;49.92;10.26;99477.00;5095684;27;20058;-71
2022/07/04 08:09:05;;;;;;;14.18;12.98;;;;;;;50.29;10.02;99472.44;5095944;27;20466;-72
2022/07/04 08:11:30;;;;;;;18.05;16.30;;;;;;;50.69;9.72;99471.06;5095927;27;20504;-72
2022/07/04 08:13:54;;;;;;;15.43;14.32;;;;;;;51.12;9.57;99479.06;5095578;27;20430;-73
2022/07/04 08:16:19;;;;;;;15.45;14.43;;;;;;;51.69;9.30;99471.31;5095486;27;20078;-72
2022/07/04 08:18:44;;;;;;;19.60;18.13;;;;;;;52.11;9.12;99478.66;5095735;27;20039;-72
2022/07/04 08:21:10;;;;;;;19.38;18.10;;;;;;;52.26;9.67;99480.47;5077362;27;20054;-70
2022/07/04 08:23:34;;;;;;;22.48;20.60;;;;;;;51.98;9.15;99477.31;5095598;27;20096;-71
2022/07/04 08:26:01;;;;;;;19.25;18.05;;;;;;;52.01;8.77;99483.03;5095755;27;20034;-69
2022/07/04 08:28:27;;;;;;;21.13;19.63;;;;;;;52.39;8.74;99484.63;5077152;27;20054;-69
2022/07/04 08:30:52;;;;;;;22.58;21.08;;;;;;;52.93;8.50;99480.19;5077583;27;20446;-69
2022/07/04 08:33:17;;;;;;;23.10;21.40;;;;;;;53.29;8.02;99472.66;5095834;27;20523;-70
2022/07/04 08:35:42;;;;;;;23.35;21.85;;;;;;;53.37;8.67;99473.53;5076964;27;20039;-68
2022/07/04 08:38:07;;;;;;;30.70;28.45;;;;;;;52.53;8.55;99473.34;5077237;27;20046;-69
2022/07/04 08:40:33;;;;;;;25.05;23.17;;;;;;;51.70;9.49;99467.22;5095688;27;20039;-69
2022/07/04 08:43:00;;;;;;;24.58;22.38;;;;;;;50.83;9.86;99471.28;5095702;27;20039;-70
2022/07/04 08:45:28;;;;;;;21.58;19.88;;;;;;;50.26;9.93;99461.03;5077106;27;20092;-71
2022/07/04 08:48:03;;;;;;;19.33;17.92;;;;;;;50.10;10.63;99472.50;5076918;27;20039;-67
2022/07/04 08:50:43;;;;;;;18.92;17.70;;;;;;;49.63;10.15;99464.28;5095899;28;20480;-71
2022/07/04 08:53:13;;;;;;;17.25;16.02;;;;;;;48.66;10.43;99461.25;5095944;28;20070;-70
2022/07/04 08:58:26;;;;;;;16.17;14.68;;;;;;;47.87;11.13;99451.09;5076908;28;20043;-73
2022/07/04 09:00:54;;;;;;;17.40;15.75;;;;;;;47.75;11.32;99452.00;5095930;28;20072;-71
2022/07/04 09:03:20;;;;;;;20.42;18.58;;;;;;;47.91;11.52;99446.38;5078064;28;20038;-71
2022/07/04 09:05:45;;;;;;;17.55;16.15;;;;;;;48.93;10.99;99453.84;5096145;27;20187;-71
2022/07/04 09:08:10;;;;;;;18.52;16.98;;;;;;;50.04;9.80;99454.13;5095708;27;20047;-71
2022/07/04 09:10:36;;;;;;;18.77;17.23;;;;;;;50.49;9.73;99456.97;5076500;28;20420;-72
2022/07/04 09:13:03;;;;;;;20.40;19.10;;;;;;;50.63;9.29;99462.09;5076667;28;20047;-72
2022/07/04 09:15:28;;;;;;;20.90;19.60;;;;;;;50.79;9.33;99448.56;5079238;27;20058;-72
2022/07/04 09:17:53;;;;;;;22.85;21.05;;;;;;;50.96;8.99;99447.19;5080615;27;20043;-73
2022/07/04 09:20:21;;;;;;;22.27;20.73;;;;;;;50.70;8.85;99453.66;5063625;27;20039;-72
2022/07/04 09:22:48;;;;;;;18.08;16.77;;;;;;;49.49;9.53;99458.28;5098932;27;20054;-72
2022/07/04 09:25:16;;;;;;;21.08;19.27;;;;;;;49.83;9.21;99446.03;5098800;27;20035;-71
2022/07/04 09:27:47;;;;;;;21.25;19.95;;;;;;;50.45;9.67;99450.44;5099096;27;20043;-71
2022/07/04 09:30:25;;;;;;;21.07;19.63;;;;;;;51.57;8.76;99459.38;5098949;27;20050;-72
2022/07/04 09:33:04;;;;;;;24.98;23.25;;;;;;;52.84;8.18;99460.56;5099062;27;20285;-71
2022/07/04 09:35:31;;;;;;;30.48;28.58;;;;;;;53.95;7.85;99456.22;5098807;27;20553;-71
2022/07/04 09:38:04;;;;;;;30.65;28.95;;;;;;;55.07;7.37;99499.44;5080515;27;20047;-70
2022/07/04 09:40:30;;;;;;;37.47;34.80;;;;;;;55.71;6.49;99504.94;5098657;27;20047;-70
2022/07/04 09:42:59;;;;;;;40.22;38.22;;;;;;;55.92;6.49;99513.41;5080006;27;20246;-70
2022/07/04 09:45:24;;;;;;;38.70;36.70;;;;;;;54.77;6.74;99485.59;5098529;27;20043;-70
2022/07/04 09:47:49;;;;;;;39.13;37.00;;;;;;;54.41;7.24;99493.34;5098737;27;20042;-71
2022/07/04 09:50:19;;;;;;;39.33;37.13;;;;;;;54.36;7.27;99505.19;5098397;27;20043;-72
2022/07/04 09:52:53;;;;;;;36.65;34.38;;;;;;;54.35;7.24;99481.53;5098320;27;20402;-72
2022/07/04 09:55:27;;;;;;;40.28;38.17;;;;;;;54.37;7.55;99474.59;5098322;27;20104;-71
2022/07/04 09:57:54;;;;;;;42.50;39.97;;;;;;;54.97;7.32;99443.16;5080055;27;20063;-69
2022/07/04 10:00:28;;;;;;;55.92;51.42;;;;;;;56.18;6.88;99476.88;5098624;27;20078;-70
2022/07/04 10:02:54;;;;;;;46.15;43.78;;;;;;;56.58;6.76;99478.19;5100752;27;20038;-69
2022/07/04 10:05:21;;;;;;;50.17;47.70;;;;;;;57.21;6.52;99475.91;5088368;27;20062;-72
2022/07/04 10:07:47;;;;;;;57.92;55.03;;;;;;;57.40;5.87;99478.13;5100119;27;20524;-72
2022/07/04 10:10:31;;;;;;;53.78;51.25;;;;;;;57.27;5.86;99436.94;5082054;27;20103;-71
2022/07/04 10:12:58;;;;;;;48.33;45.75;;;;;;;55.92;6.64;99429.63;5105264;27;20050;-72
2022/07/04 10:15:23;;;;;;;49.58;47.03;;;;;;;55.09;7.31;99416.94;5098416;27;20161;-71
2022/07/04 10:17:48;;;;;;;43.05;40.70;;;;;;;54.12;7.67;99415.47;5097954;27;20050;-71
2022/07/04 10:20:13;;;;;;;40.15;37.95;;;;;;;53.52;8.08;99409.63;5097772;27;20047;-71
2022/07/04 10:22:39;;;;;;;39.15;36.83;;;;;;;52.73;8.23;99408.44;5097857;27;20039;-71
2022/07/04 10:25:05;;;;;;;31.10;29.35;;;;;;;52.12;9.10;99404.31;5097464;27;20062;-71
2022/07/04 10:27:30;;;;;;;33.25;31.45;;;;;;;52.08;9.03;99396.94;5097128;27;20043;-73
2022/07/04 10:29:56;;;;;;;30.20;28.05;;;;;;;50.84;10.01;99387.75;5097602;27;20047;-72
2022/07/04 10:32:21;;;;;;;23.30;21.65;;;;;;;48.17;11.12;99381.66;5097924;27;20043;-72
2022/07/04 10:34:45;;;;;;;18.58;17.27;;;;;;;46.03;12.38;99373.66;5097933;27;20051;-71
2022/07/04 10:37:10;;;;;;;15.45;14.30;;;;;;;44.07;13.71;99370.94;5079382;27;20035;-72
2022/07/04 10:39:35;;;;;;;14.27;12.80;;;;;;;42.25;15.85;99363.72;5097522;27;20043;-71
2022/07/04 10:42:01;;;;;;;12.55;11.30;;;;;;;40.67;17.65;99356.91;5097520;27;20451;-72
2022/07/04 10:44:26;;;;;;;14.93;10.65;;;;;;;39.43;18.09;99364.41;5078167;27;20516;-69
2022/07/04 10:46:53;;;;;;;11.55;10.57;;;;;;;38.51;18.65;99353.78;5097359;27;20075;-72
2022/07/04 10:49:21;;;;;;;10.65;9.75;;;;;;;37.72;19.50;99355.28;5097304;27;20043;-73
2022/07/04 10:51:53;;;;;;;14.50;9.95;;;;;;;37.05;20.74;99343.91;5110640;27;20513;-74
2022/07/04 10:54:22;;;;;;;10.80;9.70;;;;;;;36.71;21.40;99343.88;5116800;27;20054;-72
2022/07/04 10:56:48;;;;;;;9.88;8.75;;;;;;;36.19;21.68;99341.63;5113246;27;20068;-73
2022/07/04 10:59:18;;;;;;;10.30;9.20;;;;;;;35.59;22.04;99337.88;5097704;27;20047;-75
2022/07/04 11:01:51;;;;;;;10.57;9.38;;;;;;;35.11;23.22;99339.28;5097568;27;20095;-74
2022/07/04 11:04:55;;;;;;;11.43;8.45;;;;;;;34.63;23.05;99335.09;5079590;27;20035;-72
2022/07/04 11:07:33;;;;;;;10.50;8.65;;;;;;;33.63;23.29;99341.81;4962020;28;20128;-71
2022/07/04 11:10:21;;;;;;;9.30;8.38;;;;;;;33.23;23.49;99345.09;4995405;28;20136;-69
2022/07/04 11:12:58;;;;;;;9.95;8.65;;;;;;;32.82;23.76;99333.69;4978011;28;20128;-72
2022/07/04 11:15:28;;;;;;;8.73;7.88;;;;;;;32.60;25.38;99332.91;5004776;28;20044;-71
2022/07/04 11:17:55;;;;;;;9.88;8.18;;;;;;;32.44;25.47;99320.84;5013864;28;20048;-70
2022/07/04 11:20:21;;;;;;;9.48;8.02;;;;;;;32.30;25.65;99330.63;5014462;28;20881;-72
2022/07/04 11:22:46;;;;;;;9.63;8.55;;;;;;;32.16;25.66;99321.06;5014520;28;20053;-72
2022/07/04 11:25:11;;;;;;;8.55;7.65;;;;;;;31.91;26.28;99324.34;5014021;28;20032;-70
2022/07/04 11:27:36;;;;;;;12.48;8.30;;;;;;;31.68;26.35;99317.97;5013835;28;20041;-69
2022/07/04 11:30:01;;;;;;;9.98;8.77;;;;;;;31.58;26.37;99320.56;4997577;28;20053;-68
2022/07/04 11:32:31;;;;;;;13.95;8.45;;;;;;;31.51;27.27;99316.28;5014293;28;20076;-69